Time;durP1;ratioP1;P1;durP2;ratioP2;P2;SDS_P1;SDS_P2;PMS_P1;PMS_P2;Temp;Humidity;BMP_temperature;BMP_pressure;BME280_temperature;BME280_humidity;BME280_pressure;Samples;Min_cycle;Max_cycle;Signal;HPM_P1;HPM_P2
2024/02/10 00:01:45;;;;;;;8.05;2.65;;;;;;;8.93;100.00;98360.19;5004776;28;20068;-81
2024/02/10 00:04:13;;;;;;;5.30;2.30;;;;;;;8.95;100.00;98360.75;5005856;28;20128;-80
2024/02/10 00:06:40;;;;;;;10.10;2.70;;;;;;;8.90;100.00;98350.25;5001905;28;20140;-81
2024/02/10 00:09:09;;;;;;;5.60;2.30;;;;;;;8.89;100.00;98356.41;5005068;28;20034;-81
2024/02/10 00:11:35;;;;;;;6.70;2.50;;;;;;;8.85;100.00;98354.44;4967165;28;20026;-81
2024/02/10 00:14:00;;;;;;;5.93;1.80;;;;;;;8.81;100.00;98356.63;4977243;28;20041;-80
2024/02/10 00:16:28;;;;;;;6.70;2.42;;;;;;;8.87;100.00;98350.66;5007587;28;20097;-80
2024/02/10 00:18:57;;;;;;;6.95;2.15;;;;;;;8.80;100.00;98346.50;4995565;28;20059;-81
2024/02/10 00:21:23;;;;;;;7.05;2.22;;;;;;;8.85;100.00;98350.06;5006697;28;20124;-80
2024/02/10 00:23:49;;;;;;;4.65;1.67;;;;;;;8.88;100.00;98352.25;4991678;28;20030;-81
2024/02/10 00:26:18;;;;;;;6.38;2.10;;;;;;;8.87;100.00;98350.66;5004880;28;20033;-80
2024/02/10 00:28:45;;;;;;;4.13;2.08;;;;;;;8.85;100.00;98352.63;4993855;28;20037;-80
2024/02/10 00:31:12;;;;;;;4.72;2.08;;;;;;;8.82;100.00;98347.09;5008026;28;20025;-80
2024/02/10 00:33:37;;;;;;;7.85;2.00;;;;;;;8.84;100.00;98350.28;4990825;28;20037;-80
2024/02/10 00:36:03;;;;;;;4.50;2.25;;;;;;;8.80;100.00;98349.06;4993515;28;20531;-81
2024/02/10 00:38:30;;;;;;;5.20;2.03;;;;;;;8.77;100.00;98345.13;4992397;28;20053;-80
2024/02/10 00:41:02;;;;;;;5.47;2.60;;;;;;;8.69;100.00;98358.28;4992818;28;20116;-80
2024/02/10 00:43:27;;;;;;;5.88;2.65;;;;;;;8.79;100.00;98350.88;5014180;28;20120;-80
2024/02/10 00:45:53;;;;;;;9.43;2.85;;;;;;;8.87;100.00;98344.69;4995370;28;20462;-80
2024/02/10 00:48:18;;;;;;;7.43;2.83;;;;;;;8.91;100.00;98345.84;5014605;28;20565;-81
2024/02/10 00:50:45;;;;;;;11.13;3.60;;;;;;;8.95;100.00;98352.22;5010155;28;20040;-80
2024/02/10 00:53:11;;;;;;;9.20;3.55;;;;;;;8.93;100.00;98349.06;4996936;28;20128;-81
2024/02/10 00:55:36;;;;;;;11.90;4.13;;;;;;;8.92;100.00;98350.03;4995322;28;20041;-81
2024/02/10 00:58:06;;;;;;;13.82;4.78;;;;;;;8.89;100.00;98345.28;4996807;28;20033;-80
2024/02/10 01:00:32;;;;;;;12.45;5.00;;;;;;;8.89;100.00;98353.03;4993061;28;20084;-80
2024/02/10 01:02:57;;;;;;;16.70;4.90;;;;;;;8.89;100.00;98348.66;4997927;28;20076;-79
2024/02/10 01:05:23;;;;;;;9.18;6.00;;;;;;;8.93;100.00;98355.00;5010892;28;20428;-79
2024/02/10 01:07:49;;;;;;;10.35;5.15;;;;;;;8.93;100.00;98355.00;5027638;28;20041;-80
2024/02/10 01:10:15;;;;;;;13.02;6.25;;;;;;;8.94;100.00;98353.22;4993207;28;20103;-80
2024/02/10 01:12:41;;;;;;;13.27;5.78;;;;;;;8.92;100.00;98355.22;5008655;28;20381;-80
2024/02/10 01:15:07;;;;;;;18.45;7.05;;;;;;;8.90;100.00;98357.22;4993739;28;20044;-80
2024/02/10 01:17:33;;;;;;;17.75;6.85;;;;;;;8.87;100.00;98353.25;5011425;28;20041;-79
2024/02/10 01:19:59;;;;;;;20.90;7.40;;;;;;;8.88;100.00;98349.66;4994814;28;20089;-79
2024/02/10 01:22:26;;;;;;;12.68;7.10;;;;;;;8.94;100.00;98355.78;4993897;28;20022;-80
2024/02/10 01:24:55;;;;;;;19.75;7.80;;;;;;;9.00;100.00;98349.00;4990358;28;20089;-81
2024/02/10 01:27:22;;;;;;;13.82;7.57;;;;;;;9.00;100.00;98354.19;4995487;28;20503;-81
2024/02/10 01:29:50;;;;;;;21.95;8.50;;;;;;;9.01;100.00;98358.38;5006936;28;20029;-81
2024/02/10 01:32:19;;;;;;;22.40;8.52;;;;;;;9.04;100.00;98361.34;4996568;28;20040;-82
2024/02/10 01:34:50;;;;;;;23.08;9.43;;;;;;;9.11;100.00;98366.47;4992642;28;20547;-81
2024/02/10 01:37:17;;;;;;;18.10;9.27;;;;;;;9.04;100.00;98361.34;4992415;28;20044;-81
2024/02/10 01:39:47;;;;;;;22.70;11.02;;;;;;;9.07;100.00;98355.75;5007961;28;20037;-80
2024/02/10 01:42:18;;;;;;;25.00;11.10;;;;;;;9.04;100.00;98358.75;4992796;28;20045;-80
2024/02/10 01:44:45;;;;;;;21.40;10.60;;;;;;;9.01;100.00;98360.97;4990194;28;20124;-81
2024/02/10 01:47:12;;;;;;;24.20;10.88;;;;;;;9.09;100.00;98365.88;5004125;28;20306;-79
2024/02/10 01:49:38;;;;;;;21.98;10.93;;;;;;;8.95;100.00;98360.75;5000225;28;20535;-80
2024/02/10 01:52:06;;;;;;;22.13;10.90;;;;;;;9.01;100.00;98356.56;4996563;28;20045;-80
2024/02/10 01:54:32;;;;;;;26.85;10.77;;;;;;;9.01;100.00;98361.75;4991313;28;20029;-80
2024/02/10 01:56:58;;;;;;;24.00;10.80;;;;;;;9.04;100.00;98363.13;4997950;28;20033;-80
2024/02/10 01:59:26;;;;;;;25.10;10.88;;;;;;;9.07;100.00;98360.91;4991263;28;20040;-80
2024/02/10 02:01:52;;;;;;;20.60;10.35;;;;;;;9.09;100.00;98358.91;4997789;28;20524;-81
2024/02/10 02:04:22;;;;;;;24.23;12.35;;;;;;;9.05;100.00;98350.00;4996792;28;20133;-81
2024/02/10 02:06:49;;;;;;;18.65;10.10;;;;;;;9.03;100.00;98349.41;5009156;28;20034;-81
2024/02/10 02:09:15;;;;;;;21.15;10.32;;;;;;;9.02;100.00;98350.38;4993763;28;20039;-80
2024/02/10 02:11:45;;;;;;;22.02;9.50;;;;;;;9.04;100.00;98351.00;4993165;28;20037;-81
2024/02/10 02:14:12;;;;;;;19.58;8.95;;;;;;;9.05;100.00;98347.41;4993981;28;20041;-80
2024/02/10 02:16:39;;;;;;;17.85;8.60;;;;;;;9.11;100.00;98356.91;4996400;28;20037;-81
2024/02/10 02:19:05;;;;;;;15.35;8.98;;;;;;;9.13;100.00;98352.31;5008391;28;20037;-80
2024/02/10 02:21:32;;;;;;;17.95;7.75;;;;;;;9.14;100.00;98353.94;4987887;28;20053;-81
2024/02/10 02:23:58;;;;;;;17.83;8.00;;;;;;;9.10;100.00;98350.16;5005666;28;20373;-81
2024/02/10 02:26:23;;;;;;;18.75;7.53;;;;;;;9.04;100.00;98356.16;4992815;28;20041;-80
2024/02/10 02:28:49;;;;;;;13.18;7.70;;;;;;;9.06;100.00;98350.78;4994994;28;20164;-80
2024/02/10 02:31:17;;;;;;;20.55;8.98;;;;;;;9.11;100.00;98346.56;4990337;28;20045;-79
2024/02/10 02:33:43;;;;;;;20.40;7.88;;;;;;;9.09;100.00;98345.19;4996174;28;20032;-80
2024/02/10 02:36:08;;;;;;;14.35;7.65;;;;;;;9.02;100.00;98352.97;5007346;28;20037;-80
2024/02/10 02:38:33;;;;;;;15.77;8.13;;;;;;;9.03;100.00;98344.22;4996860;28;20026;-80
2024/02/10 02:40:59;;;;;;;15.07;8.98;;;;;;;9.12;100.00;98343.00;4992448;28;20823;-80
2024/02/10 02:43:24;;;;;;;16.60;8.25;;;;;;;9.02;100.00;98334.88;4991248;28;20048;-81
2024/02/10 02:45:50;;;;;;;16.67;8.63;;;;;;;9.10;100.00;98333.88;4992479;28;20041;-80
2024/02/10 02:48:15;;;;;;;14.20;7.88;;;;;;;8.98;100.00;98325.94;5022425;28;20033;-80
2024/02/10 02:50:46;;;;;;;12.30;7.22;;;;;;;8.94;100.00;98330.72;5002599;28;20470;-80
2024/02/10 02:53:12;;;;;;;15.82;7.53;;;;;;;8.90;100.00;98318.44;4991479;28;20040;-81
2024/02/10 02:55:38;;;;;;;16.45;8.05;;;;;;;8.93;100.00;98320.63;5006016;28;20120;-80
2024/02/10 02:58:09;;;;;;;16.92;8.68;;;;;;;8.86;100.00;98315.47;4994624;28;20030;-80
2024/02/10 03:00:35;;;;;;;12.45;8.02;;;;;;;8.85;100.00;98321.63;4989835;28;20040;-80
2024/02/10 03:03:03;;;;;;;13.95;6.97;;;;;;;8.81;100.00;98320.44;5004591;28;20074;-79
2024/02/10 03:05:29;;;;;;;22.08;7.65;;;;;;;8.88;100.00;98317.84;5022583;28;20044;-80
2024/02/10 03:07:55;;;;;;;15.13;7.38;;;;;;;8.82;100.00;98316.88;4993658;28;20033;-79
2024/02/10 03:10:20;;;;;;;17.02;7.15;;;;;;;8.71;100.00;98310.56;5006454;28;20060;-80
2024/02/10 03:12:48;;;;;;;13.52;7.15;;;;;;;8.68;100.00;98316.16;4996907;28;20033;-80
2024/02/10 03:15:14;;;;;;;15.45;7.00;;;;;;;8.61;100.00;98317.13;5006906;28;20136;-80
2024/02/10 03:17:45;;;;;;;14.52;7.15;;;;;;;8.61;100.00;98322.31;4988487;28;20373;-80
2024/02/10 03:20:11;;;;;;;16.67;6.78;;;;;;;8.54;100.00;98314.59;4994760;28;20060;-79
2024/02/10 03:22:36;;;;;;;15.38;6.85;;;;;;;8.57;100.00;98314.97;4992774;28;20083;-80
2024/02/10 03:25:03;;;;;;;16.73;7.40;;;;;;;8.51;100.00;98317.56;5009841;28;20029;-80
2024/02/10 03:27:28;;;;;;;19.20;7.22;;;;;;;8.47;100.00;98316.38;4995545;28;20037;-79
2024/02/10 03:29:53;;;;;;;15.35;6.72;;;;;;;8.45;100.00;98308.84;5007197;28;20644;-80
2024/02/10 03:32:19;;;;;;;10.27;6.55;;;;;;;8.35;100.00;98313.59;4993107;28;20048;-80
2024/02/10 03:34:44;;;;;;;11.10;6.80;;;;;;;8.31;100.00;98312.44;5010120;28;20395;-80
2024/02/10 03:37:12;;;;;;;15.80;7.22;;;;;;;8.31;100.00;98308.06;4993301;28;20042;-81
2024/02/10 03:39:38;;;;;;;13.55;7.40;;;;;;;8.31;100.00;98309.84;5007954;28;20025;-80
2024/02/10 03:42:05;;;;;;;14.10;5.60;;;;;;;8.21;100.00;98317.97;4988107;28;20034;-80
2024/02/10 03:44:31;;;;;;;16.65;6.95;;;;;;;8.27;100.00;98313.81;4993032;28;20088;-80
2024/02/10 03:47:00;;;;;;;8.88;5.60;;;;;;;8.14;100.00;98318.00;4991771;28;20125;-80
2024/02/10 03:49:29;;;;;;;11.60;6.07;;;;;;;8.15;100.00;98314.41;5006710;28;20180;-80
2024/02/10 03:51:54;;;;;;;10.68;6.90;;;;;;;8.07;100.00;98306.88;4995032;28;20037;-80
2024/02/10 03:54:20;;;;;;;12.35;5.82;;;;;;;7.95;100.00;98309.28;4992370;28;20033;-80
2024/02/10 03:56:46;;;;;;;10.95;5.97;;;;;;;7.90;100.00;98309.09;5011939;28;20045;-80
2024/02/10 03:59:15;;;;;;;11.15;5.68;;;;;;;7.83;100.00;98308.28;4992759;28;20033;-80
2024/02/10 04:01:45;;;;;;;11.63;6.97;;;;;;;7.81;100.00;98305.09;5004496;28;20044;-80
2024/02/10 04:04:10;;;;;;;15.55;7.10;;;;;;;7.82;100.00;98308.47;4992304;28;20045;-80
2024/02/10 04:06:37;;;;;;;14.10;7.22;;;;;;;7.86;100.00;98305.31;5006422;28;20036;-80
2024/02/10 04:09:06;;;;;;;13.30;7.80;;;;;;;7.89;100.00;98314.44;5004504;28;20041;-80
2024/02/10 04:11:32;;;;;;;14.40;7.97;;;;;;;7.78;100.00;98303.72;4990521;28;20087;-80
2024/02/10 04:13:58;;;;;;;14.43;7.32;;;;;;;7.68;100.00;98308.47;4994955;28;20041;-80
2024/02/10 04:16:25;;;;;;;11.75;6.97;;;;;;;7.68;100.00;98312.84;5009652;28;20120;-80
2024/02/10 04:18:51;;;;;;;14.93;7.60;;;;;;;7.66;100.00;98313.03;5011681;28;20400;-80
2024/02/10 04:21:16;;;;;;;10.75;6.60;;;;;;;7.70;100.00;98309.06;4996004;28;20037;-80
2024/02/10 04:23:42;;;;;;;11.80;7.65;;;;;;;7.77;100.00;98314.25;4998396;28;20025;-80
2024/02/10 04:26:07;;;;;;;17.13;6.63;;;;;;;7.70;100.00;98311.66;4995948;28;20485;-80
2024/02/10 04:28:36;;;;;;;18.73;7.15;;;;;;;7.72;100.00;98316.63;4995546;28;20029;-81
2024/02/10 04:31:01;;;;;;;15.00;7.18;;;;;;;7.78;100.00;98315.84;5010556;28;20095;-80
2024/02/10 04:33:27;;;;;;;14.23;7.80;;;;;;;7.77;100.00;98312.44;4987812;28;20480;-80
2024/02/10 04:35:52;;;;;;;15.95;7.38;;;;;;;7.78;100.00;98319.22;5023464;28;20072;-80
2024/02/10 04:38:18;;;;;;;13.38;7.70;;;;;;;7.68;100.00;98311.06;5007462;28;20029;-81
2024/02/10 04:40:45;;;;;;;14.63;6.95;;;;;;;7.78;100.00;98318.44;5005559;28;20050;-80
2024/02/10 04:43:10;;;;;;;12.25;7.22;;;;;;;7.69;100.00;98322.97;5010999;28;20025;-80
2024/02/10 04:45:36;;;;;;;10.52;6.93;;;;;;;7.78;100.00;98326.16;5012435;28;20621;-80
2024/02/10 04:48:03;;;;;;;12.35;7.10;;;;;;;7.68;100.00;98318.78;5005930;28;20026;-80
2024/02/10 04:50:29;;;;;;;12.15;7.43;;;;;;;7.73;100.00;98323.38;4984867;28;20057;-80
2024/02/10 04:52:56;;;;;;;13.93;7.40;;;;;;;7.69;100.00;98322.19;4992949;28;20022;-80
2024/02/10 04:55:23;;;;;;;13.90;7.10;;;;;;;7.70;100.00;98319.38;5009436;28;20091;-80
2024/02/10 04:57:50;;;;;;;14.20;7.72;;;;;;;7.68;100.00;98312.84;5001691;28;20378;-80
2024/02/10 05:00:16;;;;;;;14.93;8.15;;;;;;;7.66;100.00;98310.47;5008760;28;20038;-81
2024/02/10 05:02:46;;;;;;;13.00;7.35;;;;;;;7.61;100.00;98320.59;5012564;28;20033;-80
2024/02/10 05:05:12;;;;;;;15.07;8.52;;;;;;;7.70;100.00;98316.03;4994244;28;20064;-81
2024/02/10 05:07:43;;;;;;;15.63;8.75;;;;;;;7.64;100.00;98320.19;4991548;28;20161;-80
2024/02/10 05:10:11;;;;;;;15.23;9.10;;;;;;;7.50;100.00;98321.97;5009611;28;20033;-80
2024/02/10 05:12:39;;;;;;;11.95;7.82;;;;;;;7.56;100.00;98318.59;5012172;28;20040;-80
2024/02/10 05:15:08;;;;;;;17.50;8.35;;;;;;;7.59;100.00;98322.56;5012073;28;20049;-80
2024/02/10 05:17:38;;;;;;;18.23;8.15;;;;;;;7.55;100.00;98329.91;5012576;28;20556;-80
2024/02/10 05:20:04;;;;;;;18.38;8.35;;;;;;;7.57;100.00;98327.94;4997027;28;20042;-80
2024/02/10 05:22:29;;;;;;;14.30;7.82;;;;;;;7.61;100.00;98330.91;5002924;28;20040;-79
2024/02/10 05:24:57;;;;;;;13.73;8.18;;;;;;;7.45;100.00;98332.06;5008629;28;20037;-80
2024/02/10 05:27:23;;;;;;;15.50;8.50;;;;;;;7.39;100.00;98325.91;4999982;28;20061;-79
2024/02/10 05:29:48;;;;;;;15.82;8.20;;;;;;;7.39;100.00;98325.13;5015825;28;20395;-79
2024/02/10 05:32:14;;;;;;;16.10;8.70;;;;;;;7.44;100.00;98311.63;5017750;28;20036;-79
2024/02/10 05:34:45;;;;;;;14.38;8.65;;;;;;;7.36;100.00;98326.28;4997789;28;20059;-78
2024/02/10 05:37:10;;;;;;;15.95;8.50;;;;;;;7.39;100.00;98335.44;4994581;28;20124;-79
2024/02/10 05:39:36;;;;;;;16.38;8.18;;;;;;;7.28;100.00;98339.34;4980362;28;20030;-79
2024/02/10 05:42:02;;;;;;;20.65;8.90;;;;;;;7.32;100.00;98344.91;4999592;28;20042;-78
2024/02/10 05:44:27;;;;;;;17.98;9.32;;;;;;;7.31;100.00;98343.31;4999574;28;20038;-79
2024/02/10 05:46:53;;;;;;;16.42;8.15;;;;;;;7.32;100.00;98342.34;5016188;28;20057;-79
2024/02/10 05:49:21;;;;;;;14.70;8.85;;;;;;;7.22;100.00;98346.09;4993935;28;20034;-79
2024/02/10 05:51:48;;;;;;;15.45;9.10;;;;;;;7.25;100.00;98339.72;4999802;28;20036;-79
2024/02/10 05:54:14;;;;;;;15.45;8.48;;;;;;;7.15;100.00;98344.47;4982640;28;20034;-79
2024/02/10 05:56:42;;;;;;;14.50;7.93;;;;;;;7.09;100.00;98347.84;5002038;28;20517;-79
2024/02/10 05:59:08;;;;;;;13.75;8.15;;;;;;;7.05;100.00;98347.41;4997392;28;20068;-79
2024/02/10 06:01:35;;;;;;;14.85;8.30;;;;;;;7.00;100.00;98352.34;5006541;28;20038;-79
2024/02/10 06:04:01;;;;;;;13.23;7.25;;;;;;;7.00;100.00;98342.81;4992966;28;20034;-79
2024/02/10 06:06:27;;;;;;;17.58;8.45;;;;;;;6.98;100.00;98351.75;4990744;28;20068;-79
2024/02/10 06:08:52;;;;;;;12.02;7.35;;;;;;;6.92;100.00;98343.00;5020457;28;20083;-79
2024/02/10 06:11:18;;;;;;;14.85;7.78;;;;;;;6.89;100.00;98361.41;5015508;28;20026;-79
2024/02/10 06:13:49;;;;;;;12.85;7.80;;;;;;;6.88;100.00;98365.00;5013892;28;20038;-79
2024/02/10 06:16:15;;;;;;;12.65;7.95;;;;;;;6.83;100.00;98365.53;4989917;28;20037;-79
2024/02/10 06:18:41;;;;;;;14.30;7.70;;;;;;;6.77;100.00;98362.94;4983888;28;20037;-78
2024/02/10 06:21:07;;;;;;;17.05;8.05;;;;;;;6.71;100.00;98361.13;4996359;28;20034;-79
2024/02/10 06:23:33;;;;;;;11.13;7.95;;;;;;;6.66;100.00;98368.63;4995969;28;20612;-79
2024/02/10 06:25:59;;;;;;;10.05;6.65;;;;;;;6.62;100.00;98373.38;4997113;28;20045;-78
2024/02/10 06:28:25;;;;;;;11.13;7.05;;;;;;;6.60;100.00;98367.63;4997264;28;20041;-79
2024/02/10 06:30:51;;;;;;;12.93;7.00;;;;;;;6.53;100.00;98374.50;4979509;28;20069;-79
2024/02/10 06:33:28;;;;;;;16.73;6.00;;;;;;;6.50;100.00;98372.28;4996335;28;20535;-78
2024/02/10 06:35:58;;;;;;;8.60;5.55;;;;;;;6.46;100.00;98383.94;4980586;28;20034;-79
2024/02/10 06:38:24;;;;;;;9.43;5.97;;;;;;;6.41;100.00;98371.66;4997059;28;20030;-79
2024/02/10 06:40:50;;;;;;;8.55;5.72;;;;;;;6.38;100.00;98375.38;4991074;28;20100;-78
2024/02/10 06:43:17;;;;;;;11.32;6.57;;;;;;;6.35;100.00;98375.78;4998367;28;20030;-78
2024/02/10 06:45:43;;;;;;;9.00;5.90;;;;;;;6.32;100.00;98377.94;4980206;28;20064;-79
2024/02/10 06:48:14;;;;;;;8.63;5.60;;;;;;;6.30;100.00;98380.69;4998573;28;20041;-78
2024/02/10 06:50:40;;;;;;;9.23;5.80;;;;;;;6.28;100.00;98387.78;4992507;28;20395;-79
2024/02/10 06:53:06;;;;;;;10.77;6.45;;;;;;;6.25;100.00;98393.31;4978197;28;20018;-79
2024/02/10 06:55:36;;;;;;;14.00;7.43;;;;;;;6.39;100.00;98387.28;5007419;28;20042;-79
2024/02/10 06:58:02;;;;;;;13.43;7.90;;;;;;;6.43;100.00;98383.34;5006279;28;20604;-78
2024/02/10 07:00:37;;;;;;;19.05;7.68;;;;;;;6.51;100.00;98389.34;5023580;28;20776;-78
2024/02/10 07:03:05;;;;;;;13.63;7.75;;;;;;;6.69;100.00;98392.22;4993183;28;20121;-78
2024/02/10 07:05:32;;;;;;;16.17;7.35;;;;;;;6.68;100.00;98395.00;5025700;28;20042;-79
2024/02/10 07:07:58;;;;;;;16.02;8.48;;;;;;;6.69;100.00;98407.69;4978818;28;20028;-79
2024/02/10 07:10:24;;;;;;;17.52;8.45;;;;;;;6.66;100.00;98405.47;4994663;28;20033;-79
2024/02/10 07:12:53;;;;;;;14.90;8.23;;;;;;;6.69;100.00;98402.53;4981340;28;20025;-79
2024/02/10 07:15:20;;;;;;;13.32;8.45;;;;;;;6.74;100.00;98412.25;4994319;28;20041;-79
2024/02/10 07:17:47;;;;;;;12.32;8.25;;;;;;;6.80;100.00;98414.09;4976110;28;20074;-79
2024/02/10 07:20:18;;;;;;;13.35;8.85;;;;;;;6.87;100.00;98416.69;4988725;28;20038;-78
2024/02/10 07:22:49;;;;;;;15.10;10.32;;;;;;;6.95;100.00;98421.69;4983144;28;20065;-78
2024/02/10 07:25:15;;;;;;;16.35;9.77;;;;;;;6.93;100.00;98421.91;4989151;28;20042;-79
2024/02/10 07:27:41;;;;;;;18.92;10.48;;;;;;;6.92;100.00;98424.66;4971583;28;20391;-79
2024/02/10 07:30:07;;;;;;;17.73;10.75;;;;;;;7.06;100.00;98420.38;4979010;28;20041;-78
2024/02/10 07:32:33;;;;;;;17.90;11.18;;;;;;;6.99;100.00;98421.13;4979958;28;20033;-79
2024/02/10 07:34:59;;;;;;;18.73;9.98;;;;;;;7.00;100.00;98419.34;4996635;28;20559;-78
2024/02/10 07:37:24;;;;;;;18.85;11.15;;;;;;;7.09;100.00;98428.50;5016553;28;20100;-78
2024/02/10 07:39:50;;;;;;;20.67;10.90;;;;;;;7.19;100.00;98433.31;4998680;28;20037;-78
2024/02/10 07:42:20;;;;;;;18.52;10.98;;;;;;;7.18;100.00;98435.09;4976581;28;20048;-78
2024/02/10 07:44:50;;;;;;;16.95;10.57;;;;;;;7.32;100.00;98435.16;4979343;28;20034;-78
2024/02/10 07:47:21;;;;;;;19.42;11.32;;;;;;;7.36;100.00;98446.66;4978739;28;20034;-78
2024/02/10 07:49:48;;;;;;;23.58;12.05;;;;;;;7.49;100.00;98440.78;4993098;28;20512;-78
2024/02/10 07:52:14;;;;;;;19.65;10.45;;;;;;;7.53;100.00;98434.22;5025098;28;20034;-78
2024/02/10 07:54:41;;;;;;;22.95;10.88;;;;;;;7.54;100.00;98439.19;4980666;28;20042;-78
2024/02/10 07:57:11;;;;;;;21.35;11.32;;;;;;;7.59;100.00;98438.59;4976531;28;20038;-79
2024/02/10 07:59:38;;;;;;;20.45;10.13;;;;;;;7.63;100.00;98441.59;4977466;28;20294;-78
2024/02/10 08:02:04;;;;;;;19.67;9.75;;;;;;;7.76;100.00;98441.63;4978675;28;20070;-78
2024/02/10 08:04:30;;;;;;;19.55;10.00;;;;;;;7.79;100.00;98439.47;4992589;28;20025;-78
2024/02/10 08:06:55;;;;;;;16.55;10.38;;;;;;;7.94;100.00;98444.47;4988577;28;20438;-79
2024/02/10 08:09:21;;;;;;;18.52;10.00;;;;;;;7.97;100.00;98446.66;4975809;28;20064;-79
2024/02/10 08:11:46;;;;;;;17.33;10.07;;;;;;;7.99;100.00;98454.22;4996657;28;20029;-78
2024/02/10 08:14:12;;;;;;;16.95;9.70;;;;;;;8.03;100.00;98444.28;5013027;28;20061;-79
2024/02/10 08:16:38;;;;;;;13.00;8.65;;;;;;;8.08;100.00;98452.22;4990132;28;20041;-78
2024/02/10 08:19:04;;;;;;;15.38;9.45;;;;;;;8.13;100.00;98447.28;4984350;28;20025;-79
2024/02/10 08:21:30;;;;;;;17.02;9.18;;;;;;;8.09;100.00;98451.25;5002308;28;20079;-79
2024/02/10 08:23:59;;;;;;;14.45;9.10;;;;;;;8.21;100.00;98448.88;4994184;28;20048;-78
2024/02/10 08:26:28;;;;;;;16.23;8.68;;;;;;;8.16;100.00;98460.56;4984399;28;20050;-78
2024/02/10 08:28:57;;;;;;;12.63;8.48;;;;;;;8.29;100.00;98444.31;4992508;28;20093;-78
2024/02/10 08:31:23;;;;;;;16.25;8.23;;;;;;;8.23;100.00;98449.47;4986103;28;20046;-79
2024/02/10 08:33:49;;;;;;;13.45;8.23;;;;;;;8.31;100.00;98434.56;4993281;28;20030;-79
2024/02/10 08:36:16;;;;;;;10.88;7.50;;;;;;;8.37;100.00;98444.09;4977490;28;20037;-78
2024/02/10 08:38:43;;;;;;;10.98;7.72;;;;;;;8.41;100.00;98441.13;5000019;28;20037;-78
2024/02/10 08:41:09;;;;;;;14.57;7.95;;;;;;;8.46;100.00;98449.13;5000585;28;20514;-78
2024/02/10 08:43:36;;;;;;;12.75;7.75;;;;;;;8.50;100.00;98435.59;5012316;28;20452;-77
2024/02/10 08:46:02;;;;;;;11.85;7.18;;;;;;;8.59;100.00;98438.78;4992418;28;20045;-78
2024/02/10 08:48:28;;;;;;;12.85;7.60;;;;;;;8.57;100.00;98449.31;5020029;28;20060;-77
2024/02/10 08:50:54;;;;;;;11.52;7.75;;;;;;;8.63;100.00;98437.38;4995511;28;20036;-78
2024/02/10 08:53:20;;;;;;;11.25;7.10;;;;;;;8.64;100.00;98436.38;4993233;28;20029;-78
2024/02/10 08:55:46;;;;;;;10.75;7.22;;;;;;;8.69;100.00;98441.72;5012521;28;20030;-78
2024/02/10 08:58:11;;;;;;;13.55;8.13;;;;;;;8.70;100.00;98443.34;5013161;28;20041;-78
2024/02/10 09:00:37;;;;;;;11.02;7.10;;;;;;;8.83;100.00;98434.75;5007197;28;20064;-78
2024/02/10 09:03:05;;;;;;;12.82;6.32;;;;;;;9.05;100.00;98437.09;4993906;28;20042;-79
2024/02/10 09:05:30;;;;;;;10.38;7.25;;;;;;;9.21;100.00;98428.91;4996899;28;20061;-79
2024/02/10 09:07:56;;;;;;;15.90;6.90;;;;;;;9.47;100.00;98422.00;5007755;28;20404;-78
2024/02/10 09:10:22;;;;;;;9.65;6.25;;;;;;;9.79;100.00;98434.97;5018090;28;20065;-78
2024/02/10 09:12:47;;;;;;;10.52;6.32;;;;;;;10.04;100.00;98424.66;5005640;28;20093;-79
2024/02/10 09:15:13;;;;;;;10.88;6.13;;;;;;;10.13;100.00;98421.63;5014074;28;20049;-77
2024/02/10 09:17:39;;;;;;;14.57;6.03;;;;;;;10.21;100.00;98425.75;5004554;28;20385;-78
2024/02/10 09:20:08;;;;;;;16.58;6.35;;;;;;;10.34;100.00;98424.88;5012534;28;20088;-78
2024/02/10 09:22:34;;;;;;;9.18;5.35;;;;;;;10.46;100.00;98425.78;5016047;28;20034;-77
2024/02/10 09:25:00;;;;;;;6.57;4.80;;;;;;;10.54;100.00;98432.47;4999175;28;20042;-78
2024/02/10 09:27:26;;;;;;;8.75;6.30;;;;;;;10.57;100.00;98426.88;5018861;28;20059;-78
2024/02/10 09:29:54;;;;;;;7.95;5.32;;;;;;;10.56;100.00;98432.28;5002823;28;20042;-78
2024/02/10 09:32:19;;;;;;;7.18;5.03;;;;;;;10.47;100.00;98436.91;5002784;28;20640;-78
2024/02/10 09:34:46;;;;;;;6.88;5.20;;;;;;;10.42;100.00;98434.19;5012443;28;20033;-78
2024/02/10 09:37:14;;;;;;;8.13;4.82;;;;;;;10.45;100.00;98431.16;5015291;28;20547;-79
2024/02/10 09:39:41;;;;;;;12.65;5.63;;;;;;;10.39;100.00;98426.84;5000611;28;20041;-78
2024/02/10 09:42:19;;;;;;;7.20;4.57;;;;;;;10.33;100.00;98429.25;5016266;28;21622;-78
2024/02/10 09:44:45;;;;;;;8.50;4.97;;;;;;;10.36;100.00;98422.88;5015566;28;20089;-78
2024/02/10 09:47:14;;;;;;;7.10;4.93;;;;;;;10.39;100.00;98421.66;4994421;28;20924;-77
2024/02/10 09:49:39;;;;;;;10.00;4.18;;;;;;;10.41;100.00;98424.81;5025816;28;20034;-78
2024/02/10 09:52:05;;;;;;;6.72;4.00;;;;;;;10.38;100.00;98428.63;5016985;28;20033;-77
2024/02/10 09:54:30;;;;;;;9.45;4.05;;;;;;;10.35;100.00;98429.06;5000559;28;20034;-78
2024/02/10 09:57:02;;;;;;;8.30;4.65;;;;;;;10.31;100.00;98428.69;5003086;28;20045;-80
2024/02/10 09:59:28;;;;;;;6.28;4.45;;;;;;;10.35;100.00;98434.22;5006162;28;20037;-76
2024/02/10 10:01:54;;;;;;;5.65;4.22;;;;;;;10.32;100.00;98430.28;5034970;28;20083;-78
2024/02/10 10:04:21;;;;;;;8.52;4.10;;;;;;;10.36;100.00;98424.66;4996916;28;20029;-78
2024/02/10 10:06:48;;;;;;;7.15;4.20;;;;;;;10.31;100.00;98426.09;4982949;28;20045;-78
2024/02/10 10:09:20;;;;;;;5.78;4.30;;;;;;;10.38;100.00;98420.88;4992908;28;20030;-78
2024/02/10 10:11:48;;;;;;;7.65;3.72;;;;;;;10.40;100.00;98428.44;4993842;28;20030;-78
2024/02/10 10:14:18;;;;;;;5.68;3.67;;;;;;;10.44;100.00;98430.38;4993254;28;20040;-77
2024/02/10 10:16:58;;;;;;;8.80;3.65;;;;;;;10.51;100.00;98433.72;4998689;28;20034;-78
2024/02/10 10:19:26;;;;;;;8.38;3.80;;;;;;;10.50;100.00;98437.28;4999065;28;20042;-79
2024/02/10 10:21:56;;;;;;;4.60;3.28;;;;;;;10.57;100.00;98428.66;4992465;28;20034;-78
2024/02/10 10:24:22;;;;;;;8.77;4.65;;;;;;;10.62;100.00;98427.00;4993162;28;20030;-78
2024/02/10 10:26:55;;;;;;;7.63;4.35;;;;;;;10.69;100.00;98427.75;4999978;28;20029;-78
2024/02/10 10:29:21;;;;;;;7.25;3.88;;;;;;;10.61;100.00;98430.63;4998939;28;20034;-79
2024/02/10 10:31:51;;;;;;;7.00;4.13;;;;;;;10.64;100.00;98427.63;4992351;28;20089;-79
2024/02/10 10:34:20;;;;;;;12.70;3.63;;;;;;;10.67;100.00;98429.75;4994045;28;20033;-79
2024/02/10 10:36:48;;;;;;;6.72;3.50;;;;;;;10.68;100.00;98425.38;5017451;28;20057;-78
2024/02/10 10:39:15;;;;;;;6.28;3.67;;;;;;;10.75;100.00;98433.09;4976999;28;20041;-78
2024/02/10 10:41:43;;;;;;;6.63;3.50;;;;;;;10.82;100.00;98429.41;4995361;28;20030;-77
2024/02/10 10:44:09;;;;;;;5.05;3.47;;;;;;;10.78;100.00;98436.03;4992092;28;20045;-76
2024/02/10 10:46:35;;;;;;;5.30;3.20;;;;;;;10.77;100.00;98436.25;4990802;28;20030;-78
2024/02/10 10:49:01;;;;;;;4.38;3.33;;;;;;;10.91;100.00;98432.53;4998375;28;20034;-78
2024/02/10 10:51:35;;;;;;;6.18;2.97;;;;;;;10.87;100.00;98428.78;4988541;28;20113;-78
2024/02/10 10:54:05;;;;;;;5.88;2.90;;;;;;;10.98;100.00;98422.88;5016172;28;20034;-78
2024/02/10 10:56:31;;;;;;;9.45;2.85;;;;;;;11.01;100.00;98424.25;4994260;28;20093;-79
2024/02/10 10:59:01;;;;;;;7.93;3.15;;;;;;;11.02;100.00;98441.38;4985773;28;20040;-78
2024/02/10 11:01:29;;;;;;;5.57;2.78;;;;;;;11.02;100.00;98428.41;4993164;28;20117;-76
2024/02/10 11:03:59;;;;;;;4.65;2.40;;;;;;;11.04;100.00;98431.59;4992764;28;20103;-78
2024/02/10 11:06:28;;;;;;;6.15;2.75;;;;;;;11.05;100.00;98417.63;5015267;28;20050;-78
2024/02/10 11:08:54;;;;;;;5.20;2.53;;;;;;;11.03;100.00;98410.06;4997138;28;21647;-78
2024/02/10 11:11:21;;;;;;;3.33;2.63;;;;;;;11.04;100.00;98400.50;4983695;28;20030;-79
2024/02/10 11:13:46;;;;;;;4.97;3.40;;;;;;;11.02;100.00;98411.06;4981463;28;20030;-78
2024/02/10 11:16:13;;;;;;;7.38;3.40;;;;;;;11.09;100.00;98403.19;4986854;28;20520;-78
2024/02/10 11:18:39;;;;;;;7.28;3.13;;;;;;;11.10;100.00;98392.63;4998971;28;20033;-78
2024/02/10 11:21:08;;;;;;;4.68;2.85;;;;;;;11.09;100.00;98393.63;4989395;28;20062;-78
2024/02/10 11:23:34;;;;;;;4.47;3.00;;;;;;;11.05;100.00;98381.31;4995726;28;20112;-77